Ruby Junction, Minnesota
Current Conditions -  °F | °C
As of 9:53 AM on Friday 21 Nov 2014 (Local Time) from KHIB Reporting Station
Overcast Overcast  
Wind Chill:   Ceiling: 9000
Heat Index: 14°   Visibility: 10mi
Dew Point:   Wind: 9mph
Humidity: 67%   Direction: 170°S
Pressure: 29.98"   Gusts: NA
Location:  47.4158°N, 93.0053°W
Report Text: KHIB 211553Z AUTO 17008KT 10SM OVC090 M10/M15 A2998 RMK AO2 SLP189 T11001150
Loading
Personal Weather Stations






























Interactive Weather Map New forecast layout! Learn more

10-Day Weather Forecast

Advertisements
Track Severe Weather on mobile